sensor_id;sensor_type;location;lat;lon;timestamp;temperature;humidity
4429;DHT22;2227;47.810;8.810;2023-12-29T04:47:55;6.30;99.90
4429;DHT22;2227;47.810;8.810;2023-12-29T04:50:22;6.50;99.90
4429;DHT22;2227;47.810;8.810;2023-12-29T04:52:49;7.10;99.90
4429;DHT22;2227;47.810;8.810;2023-12-29T04:55:15;7.30;99.90
4429;DHT22;2227;47.810;8.810;2023-12-29T04:57:42;7.40;99.90
4429;DHT22;2227;47.810;8.810;2023-12-29T05:00:10;7.50;99.90
4429;DHT22;2227;47.810;8.810;2023-12-29T05:02:38;7.50;99.90
4429;DHT22;2227;47.810;8.810;2023-12-29T05:05:05;7.60;99.90
4429;DHT22;2227;47.810;8.810;2023-12-29T05:07:32;7.70;99.90
4429;DHT22;2227;47.810;8.810;2023-12-29T05:09:58;7.80;99.90
4429;DHT22;2227;47.810;8.810;2023-12-29T05:12:25;7.90;99.90
4429;DHT22;2227;47.810;8.810;2023-12-29T05:14:52;8.00;99.90
4429;DHT22;2227;47.810;8.810;2023-12-29T05:17:19;8.00;99.90
4429;DHT22;2227;47.810;8.810;2023-12-29T05:19:46;8.00;99.90
4429;DHT22;2227;47.810;8.810;2023-12-29T05:22:13;7.90;99.90
4429;DHT22;2227;47.810;8.810;2023-12-29T05:24:43;7.80;99.90
4429;DHT22;2227;47.810;8.810;2023-12-29T05:27:11;7.80;99.90
4429;DHT22;2227;47.810;8.810;2023-12-29T05:29:38;7.80;99.90
4429;DHT22;2227;47.810;8.810;2023-12-29T05:32:06;7.80;99.90
4429;DHT22;2227;47.810;8.810;2023-12-29T05:34:34;7.80;99.90
4429;DHT22;2227;47.810;8.810;2023-12-29T05:37:00;7.80;99.90
4429;DHT22;2227;47.810;8.810;2023-12-29T05:39:27;7.90;99.90
4429;DHT22;2227;47.810;8.810;2023-12-29T05:41:55;7.90;99.90
4429;DHT22;2227;47.810;8.810;2023-12-29T05:44:22;7.80;99.90
4429;DHT22;2227;47.810;8.810;2023-12-29T05:46:49;7.70;99.90
4429;DHT22;2227;47.810;8.810;2023-12-29T05:49:16;7.70;99.90
4429;DHT22;2227;47.810;8.810;2023-12-29T05:51:44;7.90;99.90
4429;DHT22;2227;47.810;8.810;2023-12-29T05:54:11;7.90;99.90
4429;DHT22;2227;47.810;8.810;2023-12-29T05:56:38;8.10;99.90
4429;DHT22;2227;47.810;8.810;2023-12-29T05:59:05;8.20;99.90
4429;DHT22;2227;47.810;8.810;2023-12-29T06:01:32;8.20;99.90
4429;DHT22;2227;47.810;8.810;2023-12-29T06:03:59;8.20;99.90
4429;DHT22;2227;47.810;8.810;2023-12-29T06:06:26;8.30;99.90
4429;DHT22;2227;47.810;8.810;2023-12-29T06:08:52;8.30;99.90
4429;DHT22;2227;47.810;8.810;2023-12-29T06:11:19;8.30;99.90
4429;DHT22;2227;47.810;8.810;2023-12-29T06:13:46;8.40;99.90
4429;DHT22;2227;47.810;8.810;2023-12-29T06:16:22;8.40;99.90
4429;DHT22;2227;47.810;8.810;2023-12-29T06:18:51;8.50;99.90
4429;DHT22;2227;47.810;8.810;2023-12-29T06:21:18;8.50;99.90
4429;DHT22;2227;47.810;8.810;2023-12-29T06:23:46;8.40;99.90
4429;DHT22;2227;47.810;8.810;2023-12-29T06:26:17;8.30;99.90
4429;DHT22;2227;47.810;8.810;2023-12-29T06:28:45;8.30;99.90
4429;DHT22;2227;47.810;8.810;2023-12-29T06:31:12;8.30;99.90
4429;DHT22;2227;47.810;8.810;2023-12-29T06:33:43;8.30;99.90
4429;DHT22;2227;47.810;8.810;2023-12-29T06:36:10;8.20;99.90
4429;DHT22;2227;47.810;8.810;2023-12-29T06:38:37;8.00;99.90
4429;DHT22;2227;47.810;8.810;2023-12-29T06:41:04;8.00;99.90
4429;DHT22;2227;47.810;8.810;2023-12-29T06:43:31;7.90;99.90
4429;DHT22;2227;47.810;8.810;2023-12-29T06:45:58;7.90;99.90
4429;DHT22;2227;47.810;8.810;2023-12-29T06:48:25;7.80;99.90
4429;DHT22;2227;47.810;8.810;2023-12-29T06:50:52;7.80;99.90
4429;DHT22;2227;47.810;8.810;2023-12-29T06:53:19;7.80;99.90
4429;DHT22;2227;47.810;8.810;2023-12-29T06:55:46;7.60;99.90
4429;DHT22;2227;47.810;8.810;2023-12-29T06:58:13;7.60;99.90
4429;DHT22;2227;47.810;8.810;2023-12-29T07:00:40;7.60;99.90
4429;DHT22;2227;47.810;8.810;2023-12-29T07:03:12;7.60;99.90
4429;DHT22;2227;47.810;8.810;2023-12-29T07:05:39;7.50;99.90
4429;DHT22;2227;47.810;8.810;2023-12-29T07:08:05;7.40;99.90
4429;DHT22;2227;47.810;8.810;2023-12-29T07:10:33;7.40;99.90
4429;DHT22;2227;47.810;8.810;2023-12-29T07:12:59;7.40;99.90
4429;DHT22;2227;47.810;8.810;2023-12-29T07:15:27;7.40;99.90
4429;DHT22;2227;47.810;8.810;2023-12-29T07:17:53;7.50;99.90
4429;DHT22;2227;47.810;8.810;2023-12-29T07:20:20;7.40;99.90
4429;DHT22;2227;47.810;8.810;2023-12-29T07:22:48;7.60;99.90
4429;DHT22;2227;47.810;8.810;2023-12-29T07:25:14;7.50;99.90
4429;DHT22;2227;47.810;8.810;2023-12-29T07:27:42;7.50;99.90
4429;DHT22;2227;47.810;8.810;2023-12-29T07:30:09;7.50;99.90
4429;DHT22;2227;47.810;8.810;2023-12-29T07:32:36;7.40;99.90
4429;DHT22;2227;47.810;8.810;2023-12-29T07:35:03;7.40;99.90
4429;DHT22;2227;47.810;8.810;2023-12-29T07:37:30;7.50;99.90
4429;DHT22;2227;47.810;8.810;2023-12-29T07:39:57;7.50;99.90
4429;DHT22;2227;47.810;8.810;2023-12-29T07:42:24;7.60;99.90
4429;DHT22;2227;47.810;8.810;2023-12-29T07:44:51;7.60;99.90
4429;DHT22;2227;47.810;8.810;2023-12-29T07:47:18;7.70;99.90
4429;DHT22;2227;47.810;8.810;2023-12-29T07:49:44;7.80;99.90
4429;DHT22;2227;47.810;8.810;2023-12-29T07:52:12;7.80;99.90
4429;DHT22;2227;47.810;8.810;2023-12-29T07:54:38;7.80;99.90
4429;DHT22;2227;47.810;8.810;2023-12-29T07:57:05;7.80;99.90
4429;DHT22;2227;47.810;8.810;2023-12-29T07:59:32;8.00;99.90
4429;DHT22;2227;47.810;8.810;2023-12-29T08:01:59;8.10;99.90
4429;DHT22;2227;47.810;8.810;2023-12-29T08:04:26;8.20;99.90
4429;DHT22;2227;47.810;8.810;2023-12-29T08:06:53;8.10;99.90
4429;DHT22;2227;47.810;8.810;2023-12-29T08:09:19;8.00;99.90
4429;DHT22;2227;47.810;8.810;2023-12-29T08:11:46;8.10;99.90
4429;DHT22;2227;47.810;8.810;2023-12-29T08:14:16;8.30;99.90
4429;DHT22;2227;47.810;8.810;2023-12-29T08:16:43;8.20;99.90
4429;DHT22;2227;47.810;8.810;2023-12-29T08:19:09;8.30;99.90
4429;DHT22;2227;47.810;8.810;2023-12-29T08:21:37;8.50;99.90
4429;DHT22;2227;47.810;8.810;2023-12-29T08:24:04;8.50;99.90
4429;DHT22;2227;47.810;8.810;2023-12-29T08:26:31;8.50;99.90
4429;DHT22;2227;47.810;8.810;2023-12-29T08:28:58;8.50;99.90
4429;DHT22;2227;47.810;8.810;2023-12-29T08:31:25;8.50;99.90
4429;DHT22;2227;47.810;8.810;2023-12-29T08:33:53;8.50;99.90
4429;DHT22;2227;47.810;8.810;2023-12-29T08:36:21;8.60;99.90
4429;DHT22;2227;47.810;8.810;2023-12-29T08:38:48;8.50;99.90
4429;DHT22;2227;47.810;8.810;2023-12-29T08:41:15;8.50;99.90
4429;DHT22;2227;47.810;8.810;2023-12-29T08:43:42;8.50;99.90
4429;DHT22;2227;47.810;8.810;2023-12-29T08:46:09;8.60;99.90
4429;DHT22;2227;47.810;8.810;2023-12-29T08:48:36;8.40;99.90
4429;DHT22;2227;47.810;8.810;2023-12-29T08:51:03;8.40;99.90
4429;DHT22;2227;47.810;8.810;2023-12-29T08:53:30;8.30;99.90
4429;DHT22;2227;47.810;8.810;2023-12-29T08:56:01;8.30;99.90
4429;DHT22;2227;47.810;8.810;2023-12-29T08:58:29;8.40;99.90
4429;DHT22;2227;47.810;8.810;2023-12-29T09:00:56;8.40;99.90
4429;DHT22;2227;47.810;8.810;2023-12-29T09:03:23;8.40;99.90
4429;DHT22;2227;47.810;8.810;2023-12-29T09:05:50;8.40;99.90
4429;DHT22;2227;47.810;8.810;2023-12-29T09:08:17;8.40;99.90
4429;DHT22;2227;47.810;8.810;2023-12-29T09:10:44;8.40;99.90
4429;DHT22;2227;47.810;8.810;2023-12-29T09:13:10;8.50;99.90
4429;DHT22;2227;47.810;8.810;2023-12-29T09:15:37;8.50;99.90
4429;DHT22;2227;47.810;8.810;2023-12-29T09:18:05;8.60;99.90
4429;DHT22;2227;47.810;8.810;2023-12-29T09:20:33;8.60;99.90
4429;DHT22;2227;47.810;8.810;2023-12-29T09:23:00;8.80;99.90
4429;DHT22;2227;47.810;8.810;2023-12-29T09:25:27;8.90;99.90
4429;DHT22;2227;47.810;8.810;2023-12-29T09:27:54;8.90;99.90
4429;DHT22;2227;47.810;8.810;2023-12-29T09:30:21;8.90;99.90
4429;DHT22;2227;47.810;8.810;2023-12-29T09:32:48;9.00;99.90
4429;DHT22;2227;47.810;8.810;2023-12-29T09:35:15;9.10;99.90
4429;DHT22;2227;47.810;8.810;2023-12-29T09:37:43;9.20;99.90
4429;DHT22;2227;47.810;8.810;2023-12-29T09:40:11;9.20;99.90
4429;DHT22;2227;47.810;8.810;2023-12-29T09:42:38;9.10;99.90
4429;DHT22;2227;47.810;8.810;2023-12-29T09:45:09;9.20;99.90
4429;DHT22;2227;47.810;8.810;2023-12-29T09:47:42;9.20;99.90
4429;DHT22;2227;47.810;8.810;2023-12-29T09:50:13;9.20;99.90
4429;DHT22;2227;47.810;8.810;2023-12-29T09:52:40;9.30;99.90
4429;DHT22;2227;47.810;8.810;2023-12-29T09:55:09;9.60;99.90
4429;DHT22;2227;47.810;8.810;2023-12-29T09:57:38;9.60;99.90
4429;DHT22;2227;47.810;8.810;2023-12-29T10:00:06;9.70;99.90
4429;DHT22;2227;47.810;8.810;2023-12-29T10:02:37;9.80;99.90
4429;DHT22;2227;47.810;8.810;2023-12-29T10:05:04;10.30;99.90
4429;DHT22;2227;47.810;8.810;2023-12-29T10:07:36;10.90;99.90
4429;DHT22;2227;47.810;8.810;2023-12-29T10:10:07;12.00;99.90
4429;DHT22;2227;47.810;8.810;2023-12-29T10:12:41;12.60;99.90
4429;DHT22;2227;47.810;8.810;2023-12-29T10:17:52;13.50;99.90
4429;DHT22;2227;47.810;8.810;2023-12-29T10:23:28;14.30;99.90
4429;DHT22;2227;47.810;8.810;2023-12-29T10:25:57;13.60;99.90
4429;DHT22;2227;47.810;8.810;2023-12-29T10:28:24;12.70;99.90
4429;DHT22;2227;47.810;8.810;2023-12-29T10:30:51;12.20;99.90
4429;DHT22;2227;47.810;8.810;2023-12-29T10:33:21;12.60;99.90
4429;DHT22;2227;47.810;8.810;2023-12-29T10:36:01;13.00;99.90
4429;DHT22;2227;47.810;8.810;2023-12-29T10:38:34;12.90;99.90
4429;DHT22;2227;47.810;8.810;2023-12-29T10:43:38;12.30;99.90
4429;DHT22;2227;47.810;8.810;2023-12-29T10:46:09;11.90;99.90
4429;DHT22;2227;47.810;8.810;2023-12-29T10:48:37;11.80;99.90
4429;DHT22;2227;47.810;8.810;2023-12-29T10:51:05;11.90;99.90
4429;DHT22;2227;47.810;8.810;2023-12-29T10:53:36;12.40;99.90
4429;DHT22;2227;47.810;8.810;2023-12-29T10:56:20;12.60;99.90
4429;DHT22;2227;47.810;8.810;2023-12-29T10:58:58;12.60;99.90
4429;DHT22;2227;47.810;8.810;2023-12-29T11:01:26;13.20;99.90
4429;DHT22;2227;47.810;8.810;2023-12-29T11:04:06;13.30;99.90
4429;DHT22;2227;47.810;8.810;2023-12-29T11:06:43;12.60;99.90
4429;DHT22;2227;47.810;8.810;2023-12-29T11:09:14;12.50;99.90
4429;DHT22;2227;47.810;8.810;2023-12-29T11:11:42;12.50;99.90
4429;DHT22;2227;47.810;8.810;2023-12-29T11:14:10;12.70;99.90
4429;DHT22;2227;47.810;8.810;2023-12-29T11:16:38;12.50;99.90
4429;DHT22;2227;47.810;8.810;2023-12-29T11:19:07;12.40;99.90
4429;DHT22;2227;47.810;8.810;2023-12-29T11:21:39;12.10;99.90
4429;DHT22;2227;47.810;8.810;2023-12-29T11:24:07;11.90;99.90
4429;DHT22;2227;47.810;8.810;2023-12-29T11:26:34;12.20;99.90
4429;DHT22;2227;47.810;8.810;2023-12-29T11:29:01;12.10;99.90
4429;DHT22;2227;47.810;8.810;2023-12-29T11:31:31;11.90;99.90
4429;DHT22;2227;47.810;8.810;2023-12-29T11:34:06;11.90;99.90
4429;DHT22;2227;47.810;8.810;2023-12-29T11:36:40;11.90;99.90
4429;DHT22;2227;47.810;8.810;2023-12-29T11:39:38;11.80;99.90
4429;DHT22;2227;47.810;8.810;2023-12-29T11:42:17;11.90;99.90
4429;DHT22;2227;47.810;8.810;2023-12-29T11:44:46;12.10;99.90
4429;DHT22;2227;47.810;8.810;2023-12-29T11:47:41;12.00;99.90
4429;DHT22;2227;47.810;8.810;2023-12-29T11:50:08;11.80;99.90
4429;DHT22;2227;47.810;8.810;2023-12-29T11:52:36;11.90;99.90
4429;DHT22;2227;47.810;8.810;2023-12-29T11:55:15;11.80;99.90
4429;DHT22;2227;47.810;8.810;2023-12-29T11:57:44;11.50;99.90
4429;DHT22;2227;47.810;8.810;2023-12-29T12:00:12;11.30;99.90
4429;DHT22;2227;47.810;8.810;2023-12-29T12:02:39;11.30;99.90
4429;DHT22;2227;47.810;8.810;2023-12-29T12:05:10;11.50;99.90
4429;DHT22;2227;47.810;8.810;2023-12-29T12:12:55;11.90;99.90
4429;DHT22;2227;47.810;8.810;2023-12-29T12:17:57;11.30;99.90
4429;DHT22;2227;47.810;8.810;2023-12-29T12:20:24;11.20;99.90
4429;DHT22;2227;47.810;8.810;2023-12-29T12:23:00;11.10;99.90
4429;DHT22;2227;47.810;8.810;2023-12-29T12:25:30;11.20;99.90
4429;DHT22;2227;47.810;8.810;2023-12-29T12:27:57;11.20;99.90
4429;DHT22;2227;47.810;8.810;2023-12-29T12:30:24;11.40;99.90
4429;DHT22;2227;47.810;8.810;2023-12-29T12:32:58;11.50;99.90
4429;DHT22;2227;47.810;8.810;2023-12-29T12:35:26;11.60;99.90
4429;DHT22;2227;47.810;8.810;2023-12-29T12:38:29;11.60;99.90
4429;DHT22;2227;47.810;8.810;2023-12-29T12:41:09;11.90;99.90
4429;DHT22;2227;47.810;8.810;2023-12-29T12:43:39;11.80;99.90
4429;DHT22;2227;47.810;8.810;2023-12-29T12:46:13;11.90;99.90
4429;DHT22;2227;47.810;8.810;2023-12-29T12:48:44;11.90;99.90
4429;DHT22;2227;47.810;8.810;2023-12-29T12:51:12;12.00;99.90
4429;DHT22;2227;47.810;8.810;2023-12-29T12:53:43;11.80;99.90
4429;DHT22;2227;47.810;8.810;2023-12-29T12:56:14;11.50;99.90
4429;DHT22;2227;47.810;8.810;2023-12-29T12:58:41;11.80;99.90
4429;DHT22;2227;47.810;8.810;2023-12-29T13:01:09;11.70;99.90
4429;DHT22;2227;47.810;8.810;2023-12-29T13:03:38;11.50;99.90
4429;DHT22;2227;47.810;8.810;2023-12-29T13:06:06;11.50;99.90
4429;DHT22;2227;47.810;8.810;2023-12-29T13:08:34;11.50;99.90
4429;DHT22;2227;47.810;8.810;2023-12-29T13:11:09;11.70;99.90
4429;DHT22;2227;47.810;8.810;2023-12-29T13:13:37;11.90;99.90
4429;DHT22;2227;47.810;8.810;2023-12-29T13:16:04;12.10;99.90
4429;DHT22;2227;47.810;8.810;2023-12-29T13:18:32;12.30;99.90
4429;DHT22;2227;47.810;8.810;2023-12-29T13:21:00;12.50;99.90
4429;DHT22;2227;47.810;8.810;2023-12-29T13:23:28;12.70;99.90
4429;DHT22;2227;47.810;8.810;2023-12-29T13:25:58;12.70;99.90
4429;DHT22;2227;47.810;8.810;2023-12-29T13:28:26;12.70;99.90
4429;DHT22;2227;47.810;8.810;2023-12-29T13:30:55;12.70;99.90
4429;DHT22;2227;47.810;8.810;2023-12-29T13:36:37;12.10;99.90
4429;DHT22;2227;47.810;8.810;2023-12-29T13:39:21;12.20;99.90
4429;DHT22;2227;47.810;8.810;2023-12-29T13:41:50;12.20;99.90
4429;DHT22;2227;47.810;8.810;2023-12-29T13:44:18;12.10;99.90
4429;DHT22;2227;47.810;8.810;2023-12-29T13:46:47;12.30;99.90
4429;DHT22;2227;47.810;8.810;2023-12-29T13:49:15;12.50;99.90
4429;DHT22;2227;47.810;8.810;2023-12-29T13:51:43;12.30;99.90
4429;DHT22;2227;47.810;8.810;2023-12-29T13:54:10;12.30;99.90
4429;DHT22;2227;47.810;8.810;2023-12-29T13:56:37;12.50;99.90
4429;DHT22;2227;47.810;8.810;2023-12-29T13:59:05;12.60;99.90
4429;DHT22;2227;47.810;8.810;2023-12-29T14:01:37;12.70;99.90
4429;DHT22;2227;47.810;8.810;2023-12-29T14:04:07;12.50;99.90
4429;DHT22;2227;47.810;8.810;2023-12-29T14:06:49;12.40;99.90
4429;DHT22;2227;47.810;8.810;2023-12-29T14:09:17;12.40;99.90
4429;DHT22;2227;47.810;8.810;2023-12-29T14:11:49;12.20;99.90
4429;DHT22;2227;47.810;8.810;2023-12-29T14:14:23;12.30;99.90
4429;DHT22;2227;47.810;8.810;2023-12-29T14:16:54;12.30;99.90
4429;DHT22;2227;47.810;8.810;2023-12-29T14:19:22;12.30;99.90
4429;DHT22;2227;47.810;8.810;2023-12-29T14:21:54;12.20;99.90
4429;DHT22;2227;47.810;8.810;2023-12-29T14:24:21;12.20;99.90
4429;DHT22;2227;47.810;8.810;2023-12-29T14:26:57;12.20;99.90
4429;DHT22;2227;47.810;8.810;2023-12-29T14:29:26;12.20;99.90
4429;DHT22;2227;47.810;8.810;2023-12-29T14:31:53;12.20;99.90
4429;DHT22;2227;47.810;8.810;2023-12-29T14:34:26;12.20;99.90
4429;DHT22;2227;47.810;8.810;2023-12-29T14:36:53;12.20;99.90
4429;DHT22;2227;47.810;8.810;2023-12-29T14:39:20;12.10;99.90
4429;DHT22;2227;47.810;8.810;2023-12-29T14:41:47;12.20;99.90
4429;DHT22;2227;47.810;8.810;2023-12-29T14:44:15;12.30;99.90
4429;DHT22;2227;47.810;8.810;2023-12-29T14:46:42;12.10;99.90
4429;DHT22;2227;47.810;8.810;2023-12-29T14:49:10;12.00;99.90
4429;DHT22;2227;47.810;8.810;2023-12-29T14:51:37;12.00;99.90
4429;DHT22;2227;47.810;8.810;2023-12-29T14:54:04;11.70;99.90
4429;DHT22;2227;47.810;8.810;2023-12-29T14:56:31;11.60;99.90
4429;DHT22;2227;47.810;8.810;2023-12-29T14:58:58;11.60;99.90
4429;DHT22;2227;47.810;8.810;2023-12-29T15:01:25;11.70;99.90
4429;DHT22;2227;47.810;8.810;2023-12-29T15:03:54;11.60;99.90
4429;DHT22;2227;47.810;8.810;2023-12-29T15:06:21;11.70;99.90
4429;DHT22;2227;47.810;8.810;2023-12-29T15:08:47;11.70;99.90
4429;DHT22;2227;47.810;8.810;2023-12-29T15:11:14;11.80;99.90
4429;DHT22;2227;47.810;8.810;2023-12-29T15:13:41;11.80;99.90
4429;DHT22;2227;47.810;8.810;2023-12-29T15:16:09;11.80;99.90
4429;DHT22;2227;47.810;8.810;2023-12-29T15:18:36;11.80;99.90
4429;DHT22;2227;47.810;8.810;2023-12-29T15:21:03;11.80;99.90
4429;DHT22;2227;47.810;8.810;2023-12-29T15:23:31;11.70;99.90
4429;DHT22;2227;47.810;8.810;2023-12-29T15:25:58;11.60;99.90
4429;DHT22;2227;47.810;8.810;2023-12-29T15:28:25;11.60;99.90
4429;DHT22;2227;47.810;8.810;2023-12-29T15:30:52;11.50;99.90
4429;DHT22;2227;47.810;8.810;2023-12-29T15:33:19;11.40;99.90
4429;DHT22;2227;47.810;8.810;2023-12-29T15:35:46;11.30;99.90
4429;DHT22;2227;47.810;8.810;2023-12-29T15:38:13;11.30;99.90
4429;DHT22;2227;47.810;8.810;2023-12-29T15:40:40;11.30;99.90
4429;DHT22;2227;47.810;8.810;2023-12-29T15:43:07;11.40;99.90
4429;DHT22;2227;47.810;8.810;2023-12-29T15:45:35;11.20;99.90
4429;DHT22;2227;47.810;8.810;2023-12-29T15:48:02;11.10;99.90
4429;DHT22;2227;47.810;8.810;2023-12-29T15:50:31;11.10;99.90
4429;DHT22;2227;47.810;8.810;2023-12-29T15:52:58;11.10;99.90
4429;DHT22;2227;47.810;8.810;2023-12-29T15:55:25;11.10;99.90
4429;DHT22;2227;47.810;8.810;2023-12-29T15:57:52;10.90;99.90
4429;DHT22;2227;47.810;8.810;2023-12-29T16:00:19;11.10;99.90
4429;DHT22;2227;47.810;8.810;2023-12-29T16:02:47;11.00;99.90
4429;DHT22;2227;47.810;8.810;2023-12-29T16:05:14;10.90;99.90
4429;DHT22;2227;47.810;8.810;2023-12-29T16:07:40;11.00;99.90
4429;DHT22;2227;47.810;8.810;2023-12-29T16:10:08;10.90;99.90
4429;DHT22;2227;47.810;8.810;2023-12-29T16:12:36;11.00;99.90
4429;DHT22;2227;47.810;8.810;2023-12-29T16:15:03;11.10;99.90
4429;DHT22;2227;47.810;8.810;2023-12-29T16:17:30;11.20;99.90
4429;DHT22;2227;47.810;8.810;2023-12-29T16:19:57;11.20;99.90
4429;DHT22;2227;47.810;8.810;2023-12-29T16:22:24;11.10;99.90
4429;DHT22;2227;47.810;8.810;2023-12-29T16:24:51;11.10;99.90
4429;DHT22;2227;47.810;8.810;2023-12-29T16:27:18;11.10;99.90
4429;DHT22;2227;47.810;8.810;2023-12-29T16:29:45;11.00;99.90
4429;DHT22;2227;47.810;8.810;2023-12-29T16:32:19;11.10;99.90
4429;DHT22;2227;47.810;8.810;2023-12-29T16:34:46;11.20;99.90
4429;DHT22;2227;47.810;8.810;2023-12-29T16:37:13;11.10;99.90
4429;DHT22;2227;47.810;8.810;2023-12-29T16:39:40;11.00;99.90
4429;DHT22;2227;47.810;8.810;2023-12-29T16:42:07;11.00;99.90
4429;DHT22;2227;47.810;8.810;2023-12-29T16:44:34;11.10;99.90
4429;DHT22;2227;47.810;8.810;2023-12-29T16:47:00;11.00;99.90
4429;DHT22;2227;47.810;8.810;2023-12-29T16:49:27;11.10;99.90
4429;DHT22;2227;47.810;8.810;2023-12-29T16:51:54;11.00;99.90
4429;DHT22;2227;47.810;8.810;2023-12-29T16:54:21;11.10;99.90
4429;DHT22;2227;47.810;8.810;2023-12-29T16:56:47;11.10;99.90
4429;DHT22;2227;47.810;8.810;2023-12-29T16:59:15;11.00;99.90
4429;DHT22;2227;47.810;8.810;2023-12-29T17:01:42;10.80;99.90
4429;DHT22;2227;47.810;8.810;2023-12-29T17:04:11;10.80;99.90
4429;DHT22;2227;47.810;8.810;2023-12-29T17:06:41;10.80;99.90
4429;DHT22;2227;47.810;8.810;2023-12-29T17:09:08;10.80;99.90
4429;DHT22;2227;47.810;8.810;2023-12-29T17:11:38;10.70;99.90
4429;DHT22;2227;47.810;8.810;2023-12-29T17:14:05;10.60;99.90
4429;DHT22;2227;47.810;8.810;2023-12-29T17:16:32;10.60;99.90
4429;DHT22;2227;47.810;8.810;2023-12-29T17:18:59;10.70;99.90
4429;DHT22;2227;47.810;8.810;2023-12-29T17:21:26;10.70;99.90
4429;DHT22;2227;47.810;8.810;2023-12-29T17:23:52;10.70;99.90
4429;DHT22;2227;47.810;8.810;2023-12-29T17:26:19;10.60;99.90
4429;DHT22;2227;47.810;8.810;2023-12-29T17:28:46;10.60;99.90
4429;DHT22;2227;47.810;8.810;2023-12-29T17:31:14;10.40;99.90
4429;DHT22;2227;47.810;8.810;2023-12-29T17:33:41;10.50;99.90
4429;DHT22;2227;47.810;8.810;2023-12-29T17:36:11;10.60;99.90
4429;DHT22;2227;47.810;8.810;2023-12-29T17:38:38;10.60;99.90
4429;DHT22;2227;47.810;8.810;2023-12-29T17:41:05;10.80;99.90
4429;DHT22;2227;47.810;8.810;2023-12-29T17:43:32;10.70;99.90
4429;DHT22;2227;47.810;8.810;2023-12-29T17:46:05;10.70;99.90
4429;DHT22;2227;47.810;8.810;2023-12-29T17:48:33;10.80;99.90
4429;DHT22;2227;47.810;8.810;2023-12-29T17:51:00;10.80;99.90
4429;DHT22;2227;47.810;8.810;2023-12-29T17:53:26;10.80;99.90
4429;DHT22;2227;47.810;8.810;2023-12-29T17:55:53;10.70;99.90
4429;DHT22;2227;47.810;8.810;2023-12-29T17:58:20;10.50;99.90
4429;DHT22;2227;47.810;8.810;2023-12-29T18:00:47;10.40;99.90
4429;DHT22;2227;47.810;8.810;2023-12-29T18:03:14;10.20;99.90
4429;DHT22;2227;47.810;8.810;2023-12-29T18:05:42;9.90;99.90
4429;DHT22;2227;47.810;8.810;2023-12-29T18:08:11;9.90;99.90
4429;DHT22;2227;47.810;8.810;2023-12-29T18:10:40;9.70;99.90
4429;DHT22;2227;47.810;8.810;2023-12-29T18:13:06;9.80;99.90
4429;DHT22;2227;47.810;8.810;2023-12-29T18:15:33;9.90;99.90
4429;DHT22;2227;47.810;8.810;2023-12-29T18:18:00;9.90;99.90
4429;DHT22;2227;47.810;8.810;2023-12-29T18:20:28;10.00;99.90
4429;DHT22;2227;47.810;8.810;2023-12-29T18:22:55;10.00;99.90
4429;DHT22;2227;47.810;8.810;2023-12-29T18:25:22;10.00;99.90
4429;DHT22;2227;47.810;8.810;2023-12-29T18:27:49;10.10;99.90
4429;DHT22;2227;47.810;8.810;2023-12-29T18:30:16;10.10;99.90
4429;DHT22;2227;47.810;8.810;2023-12-29T18:32:43;10.10;99.90
4429;DHT22;2227;47.810;8.810;2023-12-29T18:35:10;10.10;99.90
4429;DHT22;2227;47.810;8.810;2023-12-29T18:37:37;10.10;99.90
4429;DHT22;2227;47.810;8.810;2023-12-29T18:40:06;10.10;99.90
4429;DHT22;2227;47.810;8.810;2023-12-29T18:42:33;10.20;99.90
4429;DHT22;2227;47.810;8.810;2023-12-29T18:45:00;10.20;99.90
4429;DHT22;2227;47.810;8.810;2023-12-29T18:47:26;10.10;99.90
4429;DHT22;2227;47.810;8.810;2023-12-29T18:49:54;10.00;99.90
4429;DHT22;2227;47.810;8.810;2023-12-29T18:52:21;10.10;99.90
4429;DHT22;2227;47.810;8.810;2023-12-29T18:54:48;10.00;99.90
4429;DHT22;2227;47.810;8.810;2023-12-29T18:57:18;10.10;99.90
4429;DHT22;2227;47.810;8.810;2023-12-29T18:59:46;10.20;99.90
4429;DHT22;2227;47.810;8.810;2023-12-29T19:02:14;10.10;99.90
4429;DHT22;2227;47.810;8.810;2023-12-29T19:04:44;10.00;99.90
4429;DHT22;2227;47.810;8.810;2023-12-29T19:07:11;10.00;99.90
4429;DHT22;2227;47.810;8.810;2023-12-29T19:09:40;10.00;99.90
4429;DHT22;2227;47.810;8.810;2023-12-29T19:12:07;10.00;99.90
4429;DHT22;2227;47.810;8.810;2023-12-29T19:14:34;9.90;99.90
4429;DHT22;2227;47.810;8.810;2023-12-29T19:17:02;9.90;99.90
4429;DHT22;2227;47.810;8.810;2023-12-29T19:19:29;9.90;99.90
4429;DHT22;2227;47.810;8.810;2023-12-29T19:21:56;10.00;99.90
4429;DHT22;2227;47.810;8.810;2023-12-29T19:24:23;9.90;99.90
4429;DHT22;2227;47.810;8.810;2023-12-29T19:26:50;9.90;99.90
4429;DHT22;2227;47.810;8.810;2023-12-29T19:29:17;9.80;99.90
4429;DHT22;2227;47.810;8.810;2023-12-29T19:31:45;9.90;99.90
4429;DHT22;2227;47.810;8.810;2023-12-29T19:34:12;10.00;99.90
4429;DHT22;2227;47.810;8.810;2023-12-29T19:36:40;9.90;99.90
4429;DHT22;2227;47.810;8.810;2023-12-29T19:39:06;9.80;99.90
4429;DHT22;2227;47.810;8.810;2023-12-29T19:41:34;9.80;99.90
4429;DHT22;2227;47.810;8.810;2023-12-29T19:44:03;10.00;99.90
4429;DHT22;2227;47.810;8.810;2023-12-29T19:46:30;9.80;99.90
4429;DHT22;2227;47.810;8.810;2023-12-29T19:48:57;9.90;99.90
4429;DHT22;2227;47.810;8.810;2023-12-29T19:51:25;9.90;99.90
4429;DHT22;2227;47.810;8.810;2023-12-29T19:53:52;10.00;99.90
4429;DHT22;2227;47.810;8.810;2023-12-29T19:56:27;10.00;99.90
4429;DHT22;2227;47.810;8.810;2023-12-29T19:58:54;10.00;99.90
4429;DHT22;2227;47.810;8.810;2023-12-29T20:01:23;10.00;99.90
4429;DHT22;2227;47.810;8.810;2023-12-29T20:03:50;10.00;99.90
4429;DHT22;2227;47.810;8.810;2023-12-29T20:08:44;9.80;99.90
4429;DHT22;2227;47.810;8.810;2023-12-29T20:11:11;9.90;99.90
4429;DHT22;2227;47.810;8.810;2023-12-29T20:13:38;9.90;99.90
4429;DHT22;2227;47.810;8.810;2023-12-29T20:16:05;9.90;99.90
4429;DHT22;2227;47.810;8.810;2023-12-29T20:18:33;9.90;99.90
4429;DHT22;2227;47.810;8.810;2023-12-29T20:21:01;9.90;99.90
4429;DHT22;2227;47.810;8.810;2023-12-29T20:23:28;10.00;99.90
4429;DHT22;2227;47.810;8.810;2023-12-29T20:25:55;9.90;99.90
4429;DHT22;2227;47.810;8.810;2023-12-29T20:28:22;9.90;99.90
4429;DHT22;2227;47.810;8.810;2023-12-29T20:30:49;9.90;99.90
4429;DHT22;2227;47.810;8.810;2023-12-29T20:33:16;10.00;99.90
4429;DHT22;2227;47.810;8.810;2023-12-29T20:35:43;9.90;99.90
4429;DHT22;2227;47.810;8.810;2023-12-29T20:38:10;9.80;99.90
4429;DHT22;2227;47.810;8.810;2023-12-29T20:40:36;9.90;99.90
4429;DHT22;2227;47.810;8.810;2023-12-29T20:43:03;9.90;99.90
4429;DHT22;2227;47.810;8.810;2023-12-29T20:45:31;9.60;99.90
4429;DHT22;2227;47.810;8.810;2023-12-29T20:47:58;9.50;99.90
4429;DHT22;2227;47.810;8.810;2023-12-29T20:50:24;9.40;99.90
4429;DHT22;2227;47.810;8.810;2023-12-29T20:52:51;9.40;99.90
4429;DHT22;2227;47.810;8.810;2023-12-29T20:55:18;9.30;99.90
4429;DHT22;2227;47.810;8.810;2023-12-29T20:57:45;9.50;99.90
4429;DHT22;2227;47.810;8.810;2023-12-29T21:00:12;9.60;99.90
4429;DHT22;2227;47.810;8.810;2023-12-29T21:02:39;9.50;99.90
4429;DHT22;2227;47.810;8.810;2023-12-29T21:05:06;9.70;99.90
4429;DHT22;2227;47.810;8.810;2023-12-29T21:07:36;9.60;99.90
4429;DHT22;2227;47.810;8.810;2023-12-29T21:10:03;9.70;99.90
4429;DHT22;2227;47.810;8.810;2023-12-29T21:12:29;9.60;99.90
4429;DHT22;2227;47.810;8.810;2023-12-29T21:14:56;9.70;99.90
4429;DHT22;2227;47.810;8.810;2023-12-29T21:17:23;9.70;99.90
4429;DHT22;2227;47.810;8.810;2023-12-29T21:19:50;9.70;99.90
4429;DHT22;2227;47.810;8.810;2023-12-29T21:22:19;9.80;99.90
4429;DHT22;2227;47.810;8.810;2023-12-29T21:24:46;9.80;99.90